createdAt,value
2016-04-08T00:00:42.102Z,0
2016-04-08T00:01:41.573Z,0
2016-04-08T00:02:43.373Z,0
2016-04-08T00:03:41.579Z,0
2016-04-08T00:04:41.566Z,0
2016-04-08T00:05:41.553Z,0
2016-04-08T00:06:47.884Z,0
2016-04-08T00:07:41.606Z,0
2016-04-08T00:08:41.734Z,0
2016-04-08T00:09:41.611Z,0
2016-04-08T00:10:47.942Z,0
2016-04-08T00:11:41.867Z,0
2016-04-08T00:12:43.198Z,0
2016-04-08T00:13:54.469Z,0
2016-04-08T00:14:41.597Z,0
2016-04-08T00:16:07.396Z,0
2016-04-08T00:16:49.462Z,0
2016-04-08T00:18:44.358Z,0
2016-04-08T00:18:56.936Z,0
2016-04-08T00:20:00.735Z,0
2016-04-08T00:21:09.785Z,0
2016-04-08T00:22:16.241Z,0
2016-04-08T00:23:16.196Z,0
2016-04-08T00:24:16.215Z,0
2016-04-08T00:24:57.826Z,0
2016-04-08T00:25:57.033Z,0
2016-04-08T00:26:58.473Z,0
2016-04-08T00:28:09.788Z,0
2016-04-08T00:29:16.306Z,0
2016-04-08T00:30:22.793Z,0
2016-04-08T00:30:57.108Z,0
2016-04-08T00:32:22.799Z,0
2016-04-08T00:32:57.035Z,0
2016-04-08T00:33:57.023Z,0
2016-04-08T00:34:58.588Z,0
2016-04-08T00:36:03.450Z,0
2016-04-08T00:37:09.922Z,0
2016-04-08T00:37:57.236Z,0
2016-04-08T00:38:57.239Z,0
2016-04-08T00:39:57.289Z,0
2016-04-08T00:41:09.994Z,0
2016-04-08T00:41:57.841Z,0
2016-04-08T00:44:06.659Z,0
2016-04-08T00:45:58.211Z,0
2016-04-08T00:46:13.804Z,0
2016-04-08T00:47:42.092Z,0
2016-04-08T00:48:13.920Z,0
2016-04-08T00:49:10.829Z,0
2016-04-08T00:50:10.879Z,0
2016-04-08T00:51:17.131Z,0
2016-04-08T00:52:10.853Z,0
2016-04-08T00:53:30.073Z,0
2016-04-08T00:54:10.936Z,0
2016-04-08T00:55:10.954Z,0
2016-04-08T00:56:10.909Z,0
2016-04-08T00:57:17.242Z,0
2016-04-08T00:58:10.947Z,0
2016-04-08T00:59:23.731Z,0
2016-04-08T01:00:10.983Z,0
2016-04-08T01:01:23.798Z,0
2016-04-08T01:02:12.426Z,0
2016-04-08T01:03:11.038Z,0
2016-04-08T01:04:14.072Z,0
2016-04-08T01:05:11.059Z,0
2016-04-08T01:06:23.796Z,0
2016-04-08T01:07:11.096Z,0
2016-04-08T01:08:24.474Z,0
2016-04-08T01:09:11.116Z,0
2016-04-08T01:10:11.714Z,0
2016-04-08T01:11:12.560Z,0
2016-04-08T01:12:11.766Z,0
2016-04-08T01:13:30.425Z,0
2016-04-08T01:14:11.208Z,0
2016-04-08T01:15:11.211Z,0
2016-04-08T01:16:23.979Z,0
2016-04-08T01:17:11.232Z,0
2016-04-08T01:18:24.001Z,0
2016-04-08T01:19:11.253Z,0
2016-04-08T01:20:36.961Z,0
2016-04-08T01:21:24.008Z,0
2016-04-08T01:22:42.607Z,0
2016-04-08T01:23:24.045Z,0
2016-04-08T01:24:11.360Z,0
2016-04-08T01:25:24.098Z,0
2016-04-08T01:26:24.084Z,0
2016-04-08T01:27:11.447Z,0
2016-04-08T01:28:11.480Z,0
2016-04-08T01:29:12.014Z,0
2016-04-08T01:30:11.439Z,0
2016-04-08T01:31:11.488Z,0
2016-04-08T01:32:24.163Z,0
2016-04-08T01:33:12.072Z,0
2016-04-08T01:34:30.669Z,0
2016-04-08T01:35:18.250Z,0
2016-04-08T01:36:37.239Z,0
2016-04-08T01:37:30.786Z,0
2016-04-08T01:38:42.854Z,0
2016-04-08T01:39:11.525Z,0
2016-04-08T01:40:11.591Z,0
2016-04-08T01:41:17.860Z,0
2016-04-08T01:42:11.721Z,0
2016-04-08T01:43:11.943Z,0
2016-04-08T01:44:24.382Z,0
2016-04-08T01:45:17.901Z,0
2016-04-08T01:46:31.060Z,0
2016-04-08T01:47:24.422Z,0
2016-04-08T01:48:30.941Z,0
2016-04-08T01:49:11.927Z,0
2016-04-08T01:50:37.401Z,0
2016-04-08T01:51:11.964Z,0
2016-04-08T01:52:11.732Z,0
2016-04-08T01:53:11.767Z,0
2016-04-08T01:54:11.769Z,0
2016-04-08T01:55:12.037Z,0
2016-04-08T01:56:18.164Z,0
2016-04-08T01:57:11.823Z,0
2016-04-08T01:58:31.014Z,0
2016-04-08T01:59:18.142Z,0
2016-04-08T02:00:31.051Z,0
2016-04-08T02:01:11.866Z,0
2016-04-08T02:03:21.434Z,0
2016-04-08T02:04:21.453Z,0
2016-04-08T02:05:34.255Z,0
2016-04-08T02:06:21.489Z,0
2016-04-08T02:07:47.039Z,0
2016-04-08T02:08:21.523Z,0
2016-04-08T02:10:24.154Z,0
2016-04-08T02:10:36.735Z,0
2016-04-08T02:11:36.737Z,0
2016-04-08T02:12:36.740Z,0
2016-04-08T02:13:49.508Z,0
2016-04-08T02:14:36.777Z,0
2016-04-08T02:15:36.873Z,0
2016-04-08T02:16:36.797Z,0
2016-04-08T02:17:49.566Z,0
2016-04-08T02:18:43.130Z,0
2016-04-08T02:19:56.008Z,0
2016-04-08T02:20:49.590Z,0
2016-04-08T02:22:08.170Z,0
2016-04-08T02:22:36.891Z,0
2016-04-08T02:24:08.207Z,0
2016-04-08T02:25:27.413Z,0
2016-04-08T02:25:39.963Z,0
2016-04-08T02:26:52.091Z,0
2016-04-08T02:27:40.030Z,0
2016-04-08T02:28:40.002Z,0
2016-04-08T02:29:40.051Z,0
2016-04-08T02:30:40.148Z,0
2016-04-08T02:31:40.072Z,0
2016-04-08T02:32:40.075Z,0
2016-04-08T02:33:52.812Z,0
2016-04-08T02:34:40.112Z,0
2016-04-08T02:36:05.912Z,0
2016-04-08T02:36:40.133Z,0
2016-04-08T02:38:05.886Z,0
2016-04-08T02:38:52.904Z,0
2016-04-08T02:39:40.203Z,0
2016-04-08T02:40:52.925Z,0
2016-04-08T02:41:46.489Z,0
2016-04-08T02:43:05.899Z,0
2016-04-08T02:43:59.480Z,0
2016-04-08T02:45:05.935Z,0
2016-04-08T02:46:11.625Z,0
2016-04-08T02:46:40.316Z,0
2016-04-08T02:47:40.288Z,0
2016-04-08T02:48:40.305Z,0
2016-04-08T02:49:40.933Z,0
2016-04-08T02:50:53.092Z,0
2016-04-08T02:51:53.080Z,0
2016-04-08T02:52:40.207Z,0
2016-04-08T02:53:59.444Z,0
2016-04-08T02:54:40.385Z,0
2016-04-08T02:55:46.699Z,0
2016-04-08T02:56:40.530Z,0
2016-04-08T02:57:53.157Z,0
2016-04-08T02:58:40.520Z,0
2016-04-08T02:59:40.476Z,0
2016-04-08T03:00:53.291Z,0
2016-04-08T03:01:53.232Z,0
2016-04-08T03:03:50.221Z,0
2016-04-08T03:04:05.956Z,0
2016-04-08T03:05:09.051Z,0
2016-04-08T03:06:09.086Z,0
2016-04-08T03:07:15.573Z,0
2016-04-08T03:08:15.403Z,0
2016-04-08T03:09:03.000Z,0
2016-04-08T03:10:02.955Z,0
2016-04-08T03:11:09.145Z,0
2016-04-08T03:12:02.961Z,0
2016-04-08T03:13:15.729Z,0
2016-04-08T03:14:02.951Z,0
2016-04-08T03:15:22.141Z,0
2016-04-08T03:16:09.222Z,0
2016-04-08T03:17:22.334Z,0
2016-04-08T03:18:09.461Z,0
2016-04-08T03:19:54.342Z,0
2016-04-08T03:20:06.905Z,0
2016-04-08T03:22:03.910Z,0
2016-04-08T03:22:16.488Z,0
2016-04-08T03:23:42.213Z,0
2016-04-08T03:24:23.478Z,0
2016-04-08T03:26:19.155Z,0
2016-04-08T03:26:50.924Z,0
2016-04-08T03:27:31.768Z,0
2016-04-08T03:29:41.463Z,0
2016-04-08T03:30:53.496Z,0
2016-04-08T03:31:47.702Z,0
2016-04-08T03:32:54.142Z,0
2016-04-08T03:33:54.145Z,0
2016-04-08T03:35:07.212Z,0
2016-04-08T03:35:42.900Z,0
2016-04-08T03:37:44.227Z,0
2016-04-08T03:37:56.790Z,0
2016-04-08T03:38:56.837Z,0
2016-04-08T03:40:09.784Z,0
2016-04-08T03:40:57.739Z,0
2016-04-08T03:42:22.695Z,0
2016-04-08T03:43:09.729Z,0
2016-04-08T03:44:22.685Z,0
2016-04-08T03:45:22.743Z,0
2016-04-08T03:46:23.329Z,0
2016-04-08T03:47:28.367Z,0
2016-04-08T03:47:57.094Z,0
2016-04-08T03:49:28.617Z,0
2016-04-08T03:50:03.498Z,0
2016-04-08T03:50:57.144Z,0
2016-04-08T03:52:09.899Z,0
2016-04-08T03:53:03.403Z,0
2016-04-08T03:55:32.271Z,0
2016-04-08T03:56:25.790Z,0
2016-04-08T03:57:37.922Z,0
2016-04-08T03:58:58.206Z,0
2016-04-08T03:59:13.941Z,0
2016-04-08T04:00:42.118Z,0
2016-04-08T04:01:17.087Z,0
2016-04-08T04:02:10.826Z,0
2016-04-08T04:03:23.579Z,0
2016-04-08T04:04:17.097Z,0
2016-04-08T04:06:20.383Z,0
2016-04-08T04:07:39.592Z,0
2016-04-08T04:08:26.701Z,0
2016-04-08T04:10:24.457Z,0
2016-04-08T04:10:37.021Z,0
2016-04-08T04:11:37.071Z,0
2016-04-08T04:12:37.684Z,0
2016-04-08T04:13:37.873Z,0
2016-04-08T04:14:38.502Z,0
2016-04-08T04:15:49.864Z,0
2016-04-08T04:16:49.867Z,0
2016-04-08T04:18:53.293Z,0
2016-04-08T04:19:40.187Z,0
2016-04-08T04:21:02.861Z,0
2016-04-08T04:21:46.723Z,0
2016-04-08T04:22:49.789Z,0
2016-04-08T04:23:47.417Z,0
2016-04-08T04:24:15.479Z,0
2016-04-08T04:25:53.891Z,0
2016-04-08T04:26:21.781Z,0
2016-04-08T04:28:12.505Z,0
2016-04-08T04:29:56.902Z,0
2016-04-08T04:31:28.842Z,0
2016-04-08T04:32:38.378Z,0
2016-04-08T04:33:29.347Z,0
2016-04-08T04:34:03.083Z,0
2016-04-08T04:36:06.121Z,0
2016-04-08T04:37:06.279Z,0
2016-04-08T04:38:06.157Z,0
2016-04-08T04:39:19.097Z,0
2016-04-08T04:40:13.054Z,0
2016-04-08T04:42:22.371Z,5
2016-04-08T04:43:06.343Z,5
2016-04-08T04:45:16.223Z,5
2016-04-08T04:47:12.947Z,5
2016-04-08T04:48:22.496Z,5
2016-04-08T04:48:36.467Z,5
2016-04-08T04:50:33.470Z,5
2016-04-08T04:51:05.223Z,10
2016-04-08T04:53:03.650Z,10
2016-04-08T04:53:47.529Z,10
2016-04-08T04:54:47.531Z,10
2016-04-08T04:55:16.234Z,10
2016-04-08T04:56:16.253Z,10
2016-04-08T04:57:16.303Z,10
2016-04-08T04:58:16.289Z,10
2016-04-08T04:59:29.136Z,10
2016-04-08T05:00:29.044Z,10
2016-04-08T05:01:42.019Z,10
2016-04-08T05:03:50.743Z,15
2016-04-08T05:04:50.745Z,15
2016-04-08T05:06:03.513Z,15
2016-04-08T05:06:57.063Z,15
2016-04-08T05:09:00.585Z,20
2016-04-08T05:09:13.132Z,20
2016-04-08T05:10:13.165Z,20
2016-04-08T05:11:13.308Z,20
2016-04-08T05:12:25.905Z,25
2016-04-08T05:13:26.001Z,25
2016-04-08T05:14:32.441Z,25
2016-04-08T05:15:38.900Z,25
2016-04-08T05:16:33.087Z,30
2016-04-08T05:18:10.249Z,30
2016-04-08T05:19:19.596Z,30
2016-04-08T05:20:29.130Z,30
2016-04-08T05:21:26.976Z,35
2016-04-08T05:22:00.932Z,35
2016-04-08T05:22:41.747Z,35
2016-04-08T05:24:32.281Z,45
2016-04-08T05:26:13.473Z,50
2016-04-08T05:27:00.742Z,50
2016-04-08T05:28:50.685Z,60
2016-04-08T05:29:03.356Z,60
2016-04-08T05:30:03.266Z,65
2016-04-08T05:31:16.019Z,70
2016-04-08T05:32:04.725Z,70
2016-04-08T05:33:16.086Z,70
2016-04-08T05:34:16.089Z,60
2016-04-08T05:35:03.967Z,55
2016-04-08T05:36:29.001Z,55
2016-04-08T05:37:16.113Z,60
2016-04-08T05:38:54.087Z,70
2016-04-08T05:39:25.883Z,75
2016-04-08T05:41:34.952Z,80
2016-04-08T05:41:47.501Z,80
2016-04-08T05:42:47.535Z,90
2016-04-08T05:43:48.037Z,90
2016-04-08T05:44:48.165Z,85
2016-04-08T05:45:54.059Z,80
2016-04-08T05:46:48.217Z,70
2016-04-08T05:48:00.440Z,70
2016-04-08T05:48:48.442Z,70
2016-04-08T05:50:06.867Z,65
2016-04-08T05:51:06.854Z,65
2016-04-08T05:52:19.012Z,75
2016-04-08T05:52:47.703Z,80
2016-04-08T05:55:00.286Z,80
2016-04-08T05:55:57.523Z,85
2016-04-08T05:57:16.556Z,95
2016-04-08T05:58:10.075Z,105
2016-04-08T05:59:23.109Z,100
2016-04-08T06:02:22.289Z,90
2016-04-08T06:03:09.636Z,85
2016-04-08T06:04:29.264Z,100
2016-04-08T06:05:09.766Z,110
2016-04-08T06:07:12.319Z,130
2016-04-08T06:07:24.959Z,130
2016-04-08T06:08:24.883Z,125
2016-04-08T06:09:25.121Z,125
2016-04-08T06:10:24.920Z,130
2016-04-08T06:11:31.266Z,135
2016-04-08T06:12:37.707Z,145
2016-04-08T06:13:37.710Z,150
2016-04-08T06:14:50.763Z,140
2016-04-08T06:15:39.419Z,135
2016-04-08T06:17:27.643Z,135
2016-04-08T06:18:05.942Z,135
2016-04-08T06:18:40.301Z,135
2016-04-08T06:19:40.226Z,145
2016-04-08T06:20:40.276Z,150
2016-04-08T06:21:40.278Z,160
2016-04-08T06:22:40.390Z,160
2016-04-08T06:23:40.926Z,160
2016-04-08T06:24:40.333Z,160
2016-04-08T06:25:53.119Z,160
2016-04-08T06:26:40.369Z,165
2016-04-08T06:27:59.609Z,170
2016-04-08T06:28:41.002Z,180
2016-04-08T06:29:40.424Z,185
2016-04-08T06:30:53.164Z,175
2016-04-08T06:31:53.261Z,170
2016-04-08T06:32:40.464Z,170
2016-04-08T06:33:59.720Z,170
2016-04-08T06:34:40.564Z,175
2016-04-08T06:36:06.241Z,185
2016-04-08T06:36:40.553Z,195
2016-04-08T06:38:43.374Z,225
2016-04-08T06:39:21.686Z,215
2016-04-08T06:40:46.473Z,180
2016-04-08T06:41:18.270Z,170
2016-04-08T06:43:02.385Z,140
2016-04-08T06:43:27.541Z,130
2016-04-08T06:44:15.138Z,135
2016-04-08T06:46:12.018Z,195
2016-04-08T06:46:50.255Z,210
2016-04-08T06:47:43.899Z,240
2016-04-08T06:48:50.307Z,245
2016-04-08T06:49:50.310Z,240
2016-04-08T06:50:30.997Z,235
2016-04-08T06:51:25.281Z,240
2016-04-08T06:52:37.440Z,245
2016-04-08T06:53:37.567Z,225
2016-04-08T06:54:24.726Z,210
2016-04-08T06:56:37.310Z,225
2016-04-08T06:57:47.065Z,245
2016-04-08T06:58:47.037Z,255
2016-04-08T06:59:53.352Z,270
2016-04-08T07:00:52.906Z,315
2016-04-08T07:01:47.112Z,285
2016-04-08T07:02:34.409Z,255
2016-04-08T07:03:34.411Z,250
2016-04-08T07:04:35.117Z,230
2016-04-08T07:05:47.200Z,210
2016-04-08T07:06:35.075Z,205
2016-04-08T07:07:53.722Z,170
2016-04-08T07:08:47.225Z,140
2016-04-08T07:10:00.198Z,120
2016-04-08T07:10:47.354Z,120
2016-04-08T07:12:31.656Z,115
2016-04-08T07:13:34.752Z,130
2016-04-08T07:13:47.330Z,130
2016-04-08T07:15:56.745Z,160
2016-04-08T07:17:16.122Z,175
2016-04-08T07:17:51.903Z,175
2016-04-08T07:18:50.500Z,175
2016-04-08T07:20:09.708Z,225
2016-04-08T07:20:50.614Z,240
2016-04-08T07:22:16.307Z,290
2016-04-08T07:23:03.561Z,310
2016-04-08T07:24:16.500Z,325
2016-04-08T07:25:47.691Z,340
2016-04-08T07:26:57.243Z,340
2016-04-08T07:27:09.821Z,340
2016-04-08T07:29:12.388Z,345
2016-04-08T07:29:44.263Z,350
2016-04-08T07:30:25.033Z,355
2016-04-08T07:32:27.678Z,345
2016-04-08T07:32:40.256Z,340
2016-04-08T07:33:40.368Z,330
2016-04-08T07:34:53.062Z,330
2016-04-08T07:35:46.624Z,310
2016-04-08T07:36:59.535Z,300
2016-04-08T07:37:48.035Z,280
2016-04-08T07:39:07.307Z,265
2016-04-08T07:39:59.575Z,255
2016-04-08T07:40:40.418Z,235
2016-04-08T07:41:59.674Z,220
2016-04-08T07:42:40.471Z,190
2016-04-08T07:44:43.070Z,165
2016-04-08T07:44:55.478Z,165
2016-04-08T07:45:55.497Z,180
2016-04-08T07:47:08.266Z,210
2016-04-08T07:47:56.159Z,225
2016-04-08T07:49:14.647Z,230
2016-04-08T07:50:08.415Z,195
2016-04-08T07:51:26.933Z,200
2016-04-08T07:52:14.825Z,210
2016-04-08T07:54:21.363Z,190
2016-04-08T07:55:08.413Z,195
2016-04-08T07:56:08.461Z,225
2016-04-08T07:57:14.902Z,195
2016-04-08T07:57:55.733Z,180
2016-04-08T07:59:52.657Z,195
2016-04-08T08:00:30.910Z,190
2016-04-08T08:01:11.491Z,190
2016-04-08T08:02:05.290Z,175
2016-04-08T08:03:11.559Z,170
2016-04-08T08:04:05.514Z,190
2016-04-08T08:05:06.736Z,175
2016-04-08T08:06:18.098Z,195
2016-04-08T08:07:18.304Z,205
2016-04-08T08:08:05.368Z,195
2016-04-08T08:09:05.434Z,165
2016-04-08T08:10:05.406Z,150
2016-04-08T08:11:11.689Z,145
2016-04-08T08:12:05.443Z,165
2016-04-08T08:13:24.664Z,150
2016-04-08T08:14:05.542Z,170
2016-04-08T08:15:31.169Z,175
2016-04-08T08:16:06.328Z,175
2016-04-08T08:17:36.862Z,180
2016-04-08T08:18:06.974Z,175
2016-04-08T08:19:43.992Z,195
2016-04-08T08:20:18.339Z,190
2016-04-08T08:21:18.373Z,195
2016-04-08T08:22:05.641Z,255
2016-04-08T08:23:56.178Z,280
2016-04-08T08:24:08.819Z,280
2016-04-08T08:25:08.774Z,260
2016-04-08T08:26:09.449Z,255
2016-04-08T08:27:21.530Z,325
2016-04-08T08:28:21.580Z,360
2016-04-08T08:29:28.660Z,400
2016-04-08T08:30:34.568Z,410
2016-04-08T08:31:28.244Z,385
2016-04-08T08:33:11.530Z,360
2016-04-08T08:33:24.061Z,365
2016-04-08T08:34:24.158Z,400
2016-04-08T08:35:24.754Z,410
2016-04-08T08:36:36.773Z,355
2016-04-08T08:37:30.494Z,340
2016-04-08T08:38:43.512Z,370
2016-04-08T08:39:36.984Z,355
2016-04-08T08:40:49.923Z,355
2016-04-08T08:41:37.504Z,400
2016-04-08T08:42:31.179Z,385
2016-04-08T08:43:43.509Z,320
2016-04-08T08:44:37.012Z,325
2016-04-08T08:46:46.659Z,345
2016-04-08T08:47:47.380Z,395
2016-04-08T08:49:30.948Z,445
2016-04-08T08:50:02.591Z,435
2016-04-08T08:51:34.859Z,380
2016-04-08T08:51:47.406Z,360
2016-04-08T08:53:50.678Z,310
2016-04-08T08:54:22.477Z,305
2016-04-08T08:55:03.261Z,310
2016-04-08T08:56:22.702Z,385
2016-04-08T08:57:03.297Z,425
2016-04-08T08:58:10.035Z,435
2016-04-08T08:59:09.881Z,445
2016-04-08T09:00:03.633Z,465
2016-04-08T09:01:04.808Z,460
2016-04-08T09:02:04.857Z,480
2016-04-08T09:03:09.752Z,455
2016-04-08T09:04:12.785Z,500
2016-04-08T09:05:04.991Z,560
2016-04-08T09:06:22.760Z,515
2016-04-08T09:07:17.684Z,510
2016-04-08T09:09:06.142Z,555
2016-04-08T09:09:18.689Z,560
2016-04-08T09:10:18.724Z,605
2016-04-08T09:11:31.507Z,660
2016-04-08T09:12:31.415Z,585
2016-04-08T09:13:31.559Z,610
2016-04-08T09:14:37.984Z,605
2016-04-08T09:16:29.084Z,625
2016-04-08T09:16:43.052Z,630
2016-04-08T09:17:42.414Z,675
2016-04-08T09:18:42.510Z,685
2016-04-08T09:19:41.747Z,600
2016-04-08T09:20:55.253Z,570
2016-04-08T09:21:55.052Z,520
2016-04-08T09:23:57.980Z,525
2016-04-08T09:25:23.294Z,590
2016-04-08T09:26:10.579Z,575
2016-04-08T09:27:29.831Z,555
2016-04-08T09:28:10.630Z,565
2016-04-08T09:29:10.681Z,605
2016-04-08T09:30:23.418Z,630
2016-04-08T09:31:17.608Z,645
2016-04-08T09:33:01.238Z,630
2016-04-08T09:33:26.551Z,600
2016-04-08T09:35:23.572Z,545
2016-04-08T09:35:36.150Z,530
2016-04-08T09:36:36.185Z,440
2016-04-08T09:37:48.937Z,355
2016-04-08T09:38:42.517Z,315
2016-04-08T09:39:48.988Z,325
2016-04-08T09:40:36.257Z,400
2016-04-08T09:41:49.040Z,510
2016-04-08T09:42:49.075Z,535
2016-04-08T09:43:36.718Z,485
2016-04-08T09:45:34.020Z,425
2016-04-08T09:45:46.708Z,415
2016-04-08T09:46:46.632Z,360
2016-04-08T09:47:46.651Z,335
2016-04-08T09:48:53.044Z,340
2016-04-08T09:49:47.359Z,320
2016-04-08T09:51:05.911Z,325
2016-04-08T09:51:48.161Z,370
2016-04-08T09:53:49.433Z,545
2016-04-08T09:54:02.028Z,545
2016-04-08T09:55:02.376Z,500
2016-04-08T09:56:14.800Z,445
2016-04-08T09:57:14.693Z,415
2016-04-08T09:58:21.325Z,370
2016-04-08T09:59:14.906Z,370
2016-04-08T10:01:55.914Z,275
2016-04-08T10:03:34.167Z,250
2016-04-08T10:04:14.998Z,250
2016-04-08T10:06:17.690Z,245
2016-04-08T10:06:30.300Z,245
2016-04-08T10:08:27.305Z,260
2016-04-08T10:09:05.558Z,265
2016-04-08T10:09:40.073Z,270
2016-04-08T10:11:11.251Z,295
2016-04-08T10:11:46.845Z,300
2016-04-08T10:12:40.128Z,310
2016-04-08T10:13:59.196Z,320
2016-04-08T10:14:52.993Z,330
2016-04-08T10:17:15.235Z,295
2016-04-08T10:18:08.800Z,280
2016-04-08T10:18:49.613Z,295
2016-04-08T10:20:46.649Z,360
2016-04-08T10:21:18.450Z,360
2016-04-08T10:21:59.265Z,350
2016-04-08T10:22:59.298Z,365
2016-04-08T10:24:12.052Z,370
2016-04-08T10:25:05.601Z,350
2016-04-08T10:26:18.541Z,325
2016-04-08T10:26:59.340Z,325
2016-04-08T10:29:01.971Z,420
2016-04-08T10:29:14.580Z,430
2016-04-08T10:30:14.568Z,440
2016-04-08T10:31:20.914Z,390
2016-04-08T10:32:14.431Z,340
2016-04-08T10:33:33.840Z,300
2016-04-08T10:34:14.859Z,290
2016-04-08T10:35:33.878Z,290
2016-04-08T10:36:26.817Z,290
2016-04-08T10:37:14.726Z,290
2016-04-08T10:38:14.729Z,295
2016-04-08T10:39:21.014Z,315
2016-04-08T10:40:26.922Z,340
2016-04-08T10:41:14.784Z,360
2016-04-08T10:42:27.599Z,380
2016-04-08T10:43:27.540Z,400
2016-04-08T10:44:14.964Z,405
2016-04-08T10:46:18.141Z,410
2016-04-08T10:46:30.704Z,415
2016-04-08T10:47:30.816Z,415
2016-04-08T10:48:30.725Z,420
2016-04-08T10:49:43.509Z,450
2016-04-08T10:50:37.121Z,495
2016-04-08T10:51:50.076Z,535
2016-04-08T10:53:21.348Z,540
2016-04-08T10:53:33.910Z,535
2016-04-08T10:54:33.960Z,525
2016-04-08T10:55:33.978Z,515
2016-04-08T10:56:34.121Z,520
2016-04-08T10:57:35.437Z,520
2016-04-08T10:58:46.815Z,515
2016-04-08T10:59:34.068Z,535
2016-04-08T11:00:53.301Z,560
2016-04-08T11:01:34.131Z,565
2016-04-08T11:03:32.528Z,560
2016-04-08T11:03:57.936Z,560
2016-04-08T11:04:45.124Z,565
2016-04-08T11:05:57.911Z,555
2016-04-08T11:06:57.883Z,550
2016-04-08T11:07:45.195Z,530
2016-04-08T11:08:57.950Z,520
2016-04-08T11:09:57.953Z,475
2016-04-08T11:11:42.331Z,395
2016-04-08T11:11:54.941Z,385
2016-04-08T11:12:54.911Z,365
2016-04-08T11:13:55.164Z,345
2016-04-08T11:14:54.979Z,310
2016-04-08T11:15:54.997Z,295
2016-04-08T11:16:55.641Z,280
2016-04-08T11:18:01.303Z,260
2016-04-08T11:19:07.805Z,265
2016-04-08T11:20:09.277Z,290
2016-04-08T11:21:14.311Z,315
2016-04-08T11:21:55.155Z,275
2016-04-08T11:23:57.788Z,310
2016-04-08T11:24:10.476Z,315
2016-04-08T11:25:10.493Z,350
2016-04-08T11:26:23.120Z,365
2016-04-08T11:27:23.170Z,365
2016-04-08T11:28:29.673Z,345
2016-04-08T11:30:33.117Z,380
2016-04-08T11:30:45.695Z,355
2016-04-08T11:32:42.762Z,410
2016-04-08T11:32:55.340Z,425
2016-04-08T11:33:55.499Z,460
2016-04-08T11:35:08.130Z,460
2016-04-08T11:36:08.148Z,450
2016-04-08T11:37:14.011Z,440
2016-04-08T11:38:21.138Z,455
2016-04-08T11:39:21.156Z,475
2016-04-08T11:40:27.019Z,525
2016-04-08T11:40:55.503Z,530
2016-04-08T11:41:55.552Z,550
2016-04-08T11:42:55.570Z,575
2016-04-08T11:43:55.636Z,575
2016-04-08T11:45:01.984Z,555
2016-04-08T11:45:56.218Z,555
2016-04-08T11:47:08.397Z,570
2016-04-08T11:48:01.977Z,580
2016-04-08T11:49:15.105Z,580
2016-04-08T11:49:56.308Z,580
2016-04-08T11:51:21.423Z,555
2016-04-08T11:52:15.004Z,570
2016-04-08T11:52:55.832Z,570
2016-04-08T11:53:55.913Z,580
2016-04-08T11:54:55.868Z,585
2016-04-08T11:55:55.886Z,590
2016-04-08T11:56:56.124Z,585
2016-04-08T11:57:55.970Z,555
2016-04-08T11:58:55.973Z,535
2016-04-08T11:59:56.023Z,495
2016-04-08T12:01:02.246Z,485
2016-04-08T12:02:02.296Z,505
2016-04-08T12:03:08.861Z,535
2016-04-08T12:04:08.801Z,555
2016-04-08T12:05:15.272Z,560
2016-04-08T12:06:53.089Z,560
2016-04-08T12:07:18.387Z,560
2016-04-08T12:08:05.609Z,550
2016-04-08T12:09:11.977Z,550
2016-04-08T12:10:11.979Z,565
2016-04-08T12:11:13.451Z,575
2016-04-08T12:12:12.048Z,570
2016-04-08T12:13:18.519Z,565
2016-04-08T12:14:18.569Z,560
2016-04-08T12:15:06.056Z,555
2016-04-08T12:16:57.233Z,555
2016-04-08T12:17:09.842Z,565
2016-04-08T12:19:06.816Z,545
2016-04-08T12:19:19.535Z,545
2016-04-08T12:20:19.569Z,545
2016-04-08T12:21:20.165Z,505
2016-04-08T12:22:19.574Z,500
2016-04-08T12:23:20.999Z,505
2016-04-08T12:24:32.345Z,530
2016-04-08T12:25:38.848Z,520
2016-04-08T12:26:19.757Z,545
2016-04-08T12:27:19.681Z,560
2016-04-08T12:28:19.699Z,535
2016-04-08T12:29:25.984Z,500
2016-04-08T12:30:26.048Z,455
2016-04-08T12:31:19.770Z,420
2016-04-08T12:32:39.132Z,395
2016-04-08T12:33:20.057Z,375
2016-04-08T12:35:16.859Z,385
2016-04-08T12:35:32.468Z,410
2016-04-08T12:37:26.411Z,450
2016-04-08T12:37:38.989Z,450
2016-04-08T12:39:41.636Z,470
2016-04-08T12:39:54.214Z,470
2016-04-08T12:40:54.263Z,470
2016-04-08T12:42:01.209Z,460
2016-04-08T12:43:00.690Z,445
2016-04-08T12:43:54.409Z,425
2016-04-08T12:45:07.511Z,395
2016-04-08T12:45:54.558Z,360
2016-04-08T12:48:29.875Z,300
2016-04-08T12:49:16.955Z,295
2016-04-08T12:50:04.270Z,285
2016-04-08T12:51:23.528Z,280
2016-04-08T12:52:04.364Z,290
2016-04-08T12:54:07.005Z,270
2016-04-08T12:54:19.661Z,270
2016-04-08T12:55:32.388Z,270
2016-04-08T12:56:32.408Z,255
2016-04-08T12:57:19.662Z,250
2016-04-08T12:58:22.714Z,250
2016-04-08T12:59:19.734Z,255
2016-04-08T13:00:32.489Z,235
2016-04-08T13:01:19.804Z,205
2016-04-08T13:02:39.058Z,145
2016-04-08T13:03:32.718Z,125
2016-04-08T13:04:19.848Z,115
2016-04-08T13:06:55.071Z,125
2016-04-08T13:07:48.637Z,125
2016-04-08T13:08:35.733Z,125
2016-04-08T13:09:29.659Z,120
2016-04-08T13:10:42.223Z,115
2016-04-08T13:11:42.257Z,120
2016-04-08T13:12:55.198Z,120
2016-04-08T13:13:29.559Z,120
2016-04-08T13:15:26.596Z,130
2016-04-08T13:15:39.378Z,130
2016-04-08T13:17:41.820Z,140
2016-04-08T13:17:54.398Z,140
2016-04-08T13:18:54.463Z,145
2016-04-08T13:19:54.686Z,150
2016-04-08T13:20:54.453Z,155
2016-04-08T13:22:07.506Z,155
2016-04-08T13:22:54.569Z,160
2016-04-08T13:24:45.902Z,165
2016-04-08T13:24:58.480Z,170
2016-04-08T13:27:01.753Z,210
2016-04-08T13:27:14.441Z,215
2016-04-08T13:28:20.615Z,265
2016-04-08T13:29:14.790Z,295
2016-04-08T13:30:27.152Z,315
2016-04-08T13:31:16.030Z,325
2016-04-08T13:32:33.674Z,375
2016-04-08T13:34:30.646Z,400
2016-04-08T13:34:43.334Z,420
2016-04-08T13:35:43.260Z,435
2016-04-08T13:36:56.059Z,430
2016-04-08T13:37:43.561Z,425
2016-04-08T13:39:08.989Z,420
2016-04-08T13:39:49.660Z,420
2016-04-08T13:41:09.026Z,420
2016-04-08T13:41:43.573Z,415
2016-04-08T13:42:43.247Z,405
2016-04-08T13:43:43.546Z,400
2016-04-08T13:44:43.440Z,365
2016-04-08T13:45:43.380Z,345
2016-04-08T13:46:49.836Z,340
2016-04-08T13:47:43.525Z,310
2016-04-08T13:48:46.575Z,300
2016-04-08T13:50:53.097Z,290
2016-04-08T13:51:22.803Z,280
2016-04-08T13:52:08.867Z,260
2016-04-08T13:53:31.308Z,245
2016-04-08T13:54:06.575Z,245
2016-04-08T13:56:08.581Z,245
2016-04-08T13:56:40.363Z,245
2016-04-08T13:57:21.177Z,240
2016-04-08T13:58:52.508Z,260
2016-04-08T13:59:21.589Z,275
2016-04-08T14:00:46.966Z,290
2016-04-08T14:01:21.283Z,305
2016-04-08T14:02:21.301Z,290
2016-04-08T14:03:34.069Z,275
2016-04-08T14:04:34.102Z,285
2016-04-08T14:05:21.387Z,270
2016-04-08T14:06:21.390Z,335
2016-04-08T14:07:21.501Z,420
2016-04-08T14:08:22.035Z,460
2016-04-08T14:09:21.491Z,490
2016-04-08T14:10:21.493Z,520
2016-04-08T14:11:34.216Z,515
2016-04-08T14:12:27.953Z,485
2016-04-08T14:13:21.564Z,425
2016-04-08T14:14:40.770Z,435
2016-04-08T14:15:28.351Z,435
2016-04-08T14:16:47.292Z,425
2016-04-08T14:17:21.637Z,410
2016-04-08T14:18:53.765Z,355
2016-04-08T14:19:21.675Z,345
2016-04-08T14:20:21.818Z,340
2016-04-08T14:21:21.821Z,385
2016-04-08T14:22:34.511Z,425
2016-04-08T14:23:28.186Z,450
2016-04-08T14:25:20.191Z,420
2016-04-08T14:25:35.863Z,405
2016-04-08T14:26:32.833Z,375
2016-04-08T14:27:35.883Z,370
2016-04-08T14:28:32.871Z,385
2016-04-08T14:29:45.624Z,370
2016-04-08T14:30:45.626Z,355
2016-04-08T14:31:58.597Z,380
2016-04-08T14:32:32.975Z,390
2016-04-08T14:34:29.933Z,405
2016-04-08T14:35:39.530Z,400
2016-04-08T14:36:36.907Z,395
2016-04-08T14:36:52.063Z,370
2016-04-08T14:38:54.631Z,275
2016-04-08T14:39:07.229Z,275
2016-04-08T14:40:07.246Z,270
2016-04-08T14:41:20.015Z,255
2016-04-08T14:42:07.299Z,260
2016-04-08T14:44:36.164Z,260
2016-04-08T14:45:10.384Z,255
2016-04-08T14:47:13.047Z,185
2016-04-08T14:47:25.781Z,180
2016-04-08T14:48:38.408Z,150
2016-04-08T14:49:25.678Z,125
2016-04-08T14:50:25.680Z,110
2016-04-08T14:51:25.729Z,95
2016-04-08T14:52:32.186Z,95
2016-04-08T14:53:25.766Z,100
2016-04-08T14:54:34.269Z,100